Time;durP1;ratioP1;P1;durP2;ratioP2;P2;SDS_P1;SDS_P2;PMS_P1;PMS_P2;Temp;Humidity;BMP_temperature;BMP_pressure;BME280_temperature;BME280_humidity;BME280_pressure;Samples;Min_cycle;Max_cycle;Signal;HPM_P1;HPM_P2
2023/12/29 00:00:10;;;;;;;4.22;2.15;;;;;;;8.07;100.00;97297.19;4984604;28;20046;-61
2023/12/29 00:02:38;;;;;;;4.00;1.95;;;;;;;8.03;100.00;97306.00;4985654;28;20045;-61
2023/12/29 00:05:05;;;;;;;5.55;2.40;;;;;;;7.96;100.00;97303.41;4982837;28;20043;-60
2023/12/29 00:07:32;;;;;;;6.10;2.50;;;;;;;7.94;100.00;97303.69;4977888;28;20043;-60
2023/12/29 00:09:58;;;;;;;3.55;1.92;;;;;;;7.95;100.00;97293.69;4984287;28;20039;-61
2023/12/29 00:12:25;;;;;;;4.25;2.05;;;;;;;7.99;100.00;97291.38;4985930;28;20597;-61
2023/12/29 00:14:52;;;;;;;5.72;2.47;;;;;;;7.94;100.00;97290.22;4984778;28;20125;-60
2023/12/29 00:17:18;;;;;;;4.45;2.67;;;;;;;7.92;100.00;97284.22;4979973;28;20078;-60
2023/12/29 00:19:45;;;;;;;4.55;2.35;;;;;;;7.96;100.00;97294.53;4973309;28;20510;-60
2023/12/29 00:22:11;;;;;;;4.60;2.58;;;;;;;7.92;100.00;97296.88;4959027;28;20045;-59
2023/12/29 00:24:39;;;;;;;5.30;2.55;;;;;;;7.98;100.00;97287.00;4975664;28;20042;-60
2023/12/29 00:27:06;;;;;;;3.97;1.92;;;;;;;7.96;100.00;97291.84;4979994;28;20125;-60
2023/12/29 00:29:33;;;;;;;5.20;2.55;;;;;;;7.98;100.00;97301.31;4979536;28;20050;-60
2023/12/29 00:32:02;;;;;;;4.25;2.50;;;;;;;7.92;100.00;97291.47;4978230;28;20049;-60
2023/12/29 00:34:30;;;;;;;4.40;2.30;;;;;;;7.82;100.00;97302.88;4989550;28;20150;-59
2023/12/29 00:36:57;;;;;;;4.05;2.47;;;;;;;7.88;100.00;97306.47;4982810;28;20061;-60
2023/12/29 00:39:28;;;;;;;4.10;2.47;;;;;;;7.86;100.00;97301.34;4981625;28;20038;-59
2023/12/29 00:41:56;;;;;;;5.30;2.35;;;;;;;7.72;100.00;97308.84;4984463;28;20042;-61
2023/12/29 00:44:23;;;;;;;5.18;2.30;;;;;;;7.79;100.00;97306.03;4981373;28;20039;-60
2023/12/29 00:46:50;;;;;;;4.47;2.35;;;;;;;7.86;100.00;97300.53;4984661;28;20042;-60
2023/12/29 00:49:17;;;;;;;5.35;2.78;;;;;;;7.69;100.00;97301.22;4974431;28;20072;-60
2023/12/29 00:51:43;;;;;;;5.88;3.05;;;;;;;7.65;100.00;97308.97;4985530;28;20547;-61
2023/12/29 00:54:10;;;;;;;6.22;2.60;;;;;;;7.67;100.00;97306.84;4970180;28;20053;-59
2023/12/29 00:56:37;;;;;;;6.15;2.92;;;;;;;7.64;100.00;97304.66;4981834;28;20066;-60
2023/12/29 00:59:04;;;;;;;5.28;2.38;;;;;;;7.54;100.00;97293.63;4978386;28;20054;-60
2023/12/29 01:01:35;;;;;;;5.22;2.75;;;;;;;7.48;100.00;97308.03;4982977;28;20054;-60
2023/12/29 01:04:02;;;;;;;5.03;2.87;;;;;;;7.51;100.00;97305.69;4982461;28;20046;-60
2023/12/29 01:06:29;;;;;;;5.78;2.95;;;;;;;7.42;100.00;97304.41;4981070;28;20289;-60
2023/12/29 01:08:56;;;;;;;6.38;3.03;;;;;;;7.40;100.00;97298.41;4979064;28;20545;-61
2023/12/29 01:11:22;;;;;;;5.53;3.08;;;;;;;7.35;100.00;97303.69;4975504;28;20116;-64
2023/12/29 01:13:50;;;;;;;6.38;2.85;;;;;;;7.39;100.00;97303.00;4981384;28;20050;-63
2023/12/29 01:16:16;;;;;;;5.63;3.15;;;;;;;7.42;100.00;97299.00;4980443;28;20043;-64
2023/12/29 01:18:43;;;;;;;4.45;2.53;;;;;;;7.45;100.00;97303.09;4984554;28;20295;-64
2023/12/29 01:21:10;;;;;;;4.97;2.80;;;;;;;7.46;100.00;97296.66;4977665;28;20062;-63
2023/12/29 01:23:36;;;;;;;5.00;3.08;;;;;;;7.41;100.00;97292.78;4989955;28;20750;-63
2023/12/29 01:26:03;;;;;;;4.75;2.83;;;;;;;7.40;100.00;97288.47;4978640;28;20493;-65
2023/12/29 01:28:30;;;;;;;5.32;2.90;;;;;;;7.44;100.00;97288.00;4979300;28;20076;-62
2023/12/29 01:30:57;;;;;;;5.65;3.00;;;;;;;7.45;100.00;97292.31;4983009;28;20061;-64
2023/12/29 01:33:23;;;;;;;6.30;2.70;;;;;;;7.45;100.00;97295.84;4976755;28;20046;-64
2023/12/29 01:35:50;;;;;;;5.80;2.97;;;;;;;7.47;100.00;97288.34;4978130;28;20052;-63
2023/12/29 01:38:16;;;;;;;7.05;3.35;;;;;;;7.49;100.00;97269.25;4983771;28;20050;-64
2023/12/29 01:40:46;;;;;;;4.97;2.83;;;;;;;7.50;100.00;97274.41;4977134;28;20043;-64
2023/12/29 01:43:13;;;;;;;6.05;3.10;;;;;;;7.53;100.00;97273.13;4979242;28;20070;-63
2023/12/29 01:45:41;;;;;;;5.47;2.67;;;;;;;7.54;100.00;97277.44;4990148;28;20042;-62
2023/12/29 01:48:23;;;;;;;5.13;2.80;;;;;;;7.56;100.00;97278.06;4979166;28;20046;-64
2023/12/29 01:50:51;;;;;;;6.10;2.80;;;;;;;7.65;100.00;97275.81;4982592;28;20069;-62
2023/12/29 01:53:17;;;;;;;4.70;2.75;;;;;;;7.64;100.00;97276.88;4972299;28;20050;-64
2023/12/29 01:55:48;;;;;;;5.35;2.70;;;;;;;7.68;100.00;97286.13;4978799;28;20046;-64
2023/12/29 01:58:15;;;;;;;5.85;2.78;;;;;;;7.74;100.00;97287.84;4979369;28;20030;-64
2023/12/29 02:00:43;;;;;;;4.68;2.55;;;;;;;7.73;100.00;97286.22;4995290;28;20092;-63
2023/12/29 02:03:09;;;;;;;4.90;2.72;;;;;;;7.71;100.00;97282.13;4980936;28;20506;-64
2023/12/29 02:05:37;;;;;;;5.45;3.10;;;;;;;7.76;100.00;97283.06;4993484;28;20070;-64
2023/12/29 02:08:05;;;;;;;5.10;2.25;;;;;;;7.75;100.00;97281.44;4978102;28;20073;-65
2023/12/29 02:10:35;;;;;;;4.93;2.80;;;;;;;7.78;100.00;97266.66;4979257;28;20049;-63
2023/12/29 02:13:02;;;;;;;5.57;2.97;;;;;;;7.78;100.00;97275.56;4983116;28;20049;-64
2023/12/29 02:15:29;;;;;;;4.43;2.40;;;;;;;7.85;100.00;97272.72;4973992;28;20042;-63
2023/12/29 02:18:07;;;;;;;4.10;2.40;;;;;;;7.82;100.00;97265.13;4976072;28;20047;-63
2023/12/29 02:20:34;;;;;;;4.72;2.60;;;;;;;7.88;100.00;97263.34;4978606;28;20093;-63
2023/12/29 02:23:00;;;;;;;6.15;2.67;;;;;;;7.92;100.00;97264.50;4979525;28;20434;-63
2023/12/29 02:25:27;;;;;;;5.57;2.63;;;;;;;7.93;100.00;97266.97;4976592;28;20085;-62
2023/12/29 02:28:12;;;;;;;4.60;2.80;;;;;;;7.83;100.00;97268.63;4980097;28;20621;-62
2023/12/29 02:30:48;;;;;;;4.80;2.85;;;;;;;7.67;100.00;97277.19;4979230;28;20053;-63
2023/12/29 02:33:19;;;;;;;4.70;2.47;;;;;;;7.66;100.00;97261.25;4980151;28;20062;-63
2023/12/29 02:35:51;;;;;;;4.82;2.70;;;;;;;7.59;100.00;97255.19;4975251;28;20031;-65
2023/12/29 02:38:19;;;;;;;4.80;2.97;;;;;;;7.48;100.00;97259.53;4979998;28;20038;-64
2023/12/29 02:40:46;;;;;;;4.85;3.00;;;;;;;7.43;100.00;97262.94;4981443;28;20049;-63
2023/12/29 02:43:14;;;;;;;5.90;3.05;;;;;;;7.41;100.00;97249.69;4975784;28;20101;-64
2023/12/29 02:45:41;;;;;;;5.72;3.10;;;;;;;7.36;100.00;97260.34;4974385;28;20036;-63
2023/12/29 02:48:09;;;;;;;4.57;2.70;;;;;;;7.41;100.00;97254.28;4983257;28;20047;-63
2023/12/29 02:50:35;;;;;;;5.53;2.97;;;;;;;7.34;100.00;97248.16;4978505;28;20085;-62
2023/12/29 02:53:04;;;;;;;6.72;3.15;;;;;;;7.29;100.00;97238.91;4968299;28;20042;-63
2023/12/29 02:55:30;;;;;;;5.53;3.10;;;;;;;7.24;100.00;97241.50;4979838;28;20171;-64
2023/12/29 02:57:57;;;;;;;7.00;3.50;;;;;;;7.26;100.00;97252.03;4978392;28;20039;-64
2023/12/29 03:00:24;;;;;;;5.47;3.15;;;;;;;7.28;100.00;97236.47;4976707;28;20509;-63
2023/12/29 03:02:50;;;;;;;6.45;3.25;;;;;;;7.25;100.00;97239.59;4979491;28;20035;-65
2023/12/29 03:05:17;;;;;;;6.82;3.58;;;;;;;7.28;100.00;97234.59;4979418;28;20122;-63
2023/12/29 03:07:43;;;;;;;6.07;3.25;;;;;;;7.34;100.00;97248.16;4984053;28;20049;-62
2023/12/29 03:10:10;;;;;;;6.35;3.63;;;;;;;7.31;100.00;97244.06;4979080;28;20055;-64
2023/12/29 03:12:37;;;;;;;5.80;3.20;;;;;;;7.26;100.00;97242.06;4981454;28;20518;-64
2023/12/29 03:15:04;;;;;;;6.47;3.30;;;;;;;7.26;100.00;97238.56;4981636;28;20049;-64
2023/12/29 03:17:31;;;;;;;6.22;3.40;;;;;;;7.20;100.00;97239.50;4985509;28;20054;-65
2023/12/29 03:19:58;;;;;;;6.53;3.47;;;;;;;7.23;100.00;97239.03;4981567;28;20312;-63
2023/12/29 03:22:25;;;;;;;5.25;3.13;;;;;;;7.14;100.00;97234.00;4986885;28;20046;-63
2023/12/29 03:24:52;;;;;;;6.30;3.28;;;;;;;7.08;100.00;97236.81;4975804;28;20039;-63
2023/12/29 03:27:18;;;;;;;5.82;3.13;;;;;;;7.11;100.00;97233.66;4979973;28;20105;-64
2023/12/29 03:29:45;;;;;;;6.85;3.60;;;;;;;7.01;100.00;97228.84;4993826;28;20410;-64
2023/12/29 03:32:12;;;;;;;6.18;3.70;;;;;;;6.93;100.00;97221.91;4978916;28;20555;-63
2023/12/29 03:34:38;;;;;;;6.53;3.95;;;;;;;6.90;100.00;97223.19;4977154;28;20050;-62
2023/12/29 03:37:05;;;;;;;7.05;3.25;;;;;;;6.94;100.00;97222.72;4981989;28;20038;-64
2023/12/29 03:39:35;;;;;;;7.53;3.70;;;;;;;7.03;100.00;97226.72;4994768;28;20038;-63
2023/12/29 03:42:01;;;;;;;5.47;3.28;;;;;;;7.00;100.00;97222.63;4982486;28;20049;-63
2023/12/29 03:44:28;;;;;;;5.85;2.92;;;;;;;7.03;100.00;97224.84;4980529;28;20062;-64
2023/12/29 03:46:54;;;;;;;5.90;3.17;;;;;;;7.19;100.00;97227.09;4972402;28;20097;-64
2023/12/29 03:49:22;;;;;;;5.32;3.15;;;;;;;7.26;100.00;97236.69;4983552;28;20053;-62
2023/12/29 03:51:48;;;;;;;6.88;3.08;;;;;;;7.23;100.00;97230.97;4985290;28;20470;-63
2023/12/29 03:54:17;;;;;;;4.93;2.75;;;;;;;7.16;100.00;97231.88;4983801;28;20054;-64
2023/12/29 03:56:43;;;;;;;7.07;3.60;;;;;;;7.11;100.00;97223.69;4981590;28;20525;-65
2023/12/29 03:59:10;;;;;;;5.15;3.10;;;;;;;7.03;100.00;97229.41;4982952;28;20064;-63
2023/12/29 04:01:37;;;;;;;5.65;3.50;;;;;;;7.00;100.00;97224.47;4977895;28;20434;-63
2023/12/29 04:04:03;;;;;;;5.55;3.40;;;;;;;6.99;100.00;97221.00;4979029;28;20050;-64
2023/12/29 04:06:31;;;;;;;7.47;3.63;;;;;;;6.89;100.00;97226.09;4984556;28;20047;-65
2023/12/29 04:08:57;;;;;;;8.32;3.42;;;;;;;6.86;100.00;97226.59;4977033;28;20039;-63
2023/12/29 04:11:24;;;;;;;5.45;3.33;;;;;;;6.82;100.00;97220.84;4984981;28;20100;-64
2023/12/29 04:13:50;;;;;;;7.93;3.97;;;;;;;6.75;100.00;97212.06;4985142;28;20042;-64
2023/12/29 04:16:18;;;;;;;7.43;3.72;;;;;;;6.74;100.00;97216.63;4980254;28;20494;-62
2023/12/29 04:18:44;;;;;;;5.88;3.50;;;;;;;6.76;100.00;97211.00;4976792;28;20037;-65
2023/12/29 04:21:15;;;;;;;6.97;3.70;;;;;;;6.80;100.00;97209.50;4976444;28;20046;-63
2023/12/29 04:23:41;;;;;;;6.63;3.65;;;;;;;6.78;100.00;97216.97;4982499;28;20645;-64
2023/12/29 04:26:08;;;;;;;5.88;3.22;;;;;;;6.83;100.00;97210.91;4982494;28;20050;-63
2023/12/29 04:28:36;;;;;;;6.72;3.53;;;;;;;6.87;100.00;97212.91;4984599;28;20034;-63
2023/12/29 04:31:03;;;;;;;5.47;3.08;;;;;;;6.87;100.00;97220.97;4983938;28;20039;-63
2023/12/29 04:33:30;;;;;;;5.65;3.50;;;;;;;6.86;100.00;97218.53;4979993;28;20050;-65
2023/12/29 04:35:57;;;;;;;4.68;3.05;;;;;;;6.82;100.00;97218.13;4979448;28;20121;-65
2023/12/29 04:38:24;;;;;;;7.25;3.28;;;;;;;6.80;100.00;97225.63;4985412;28;20133;-64
2023/12/29 04:40:50;;;;;;;6.90;3.30;;;;;;;6.79;100.00;97226.69;4981336;28;20113;-62
2023/12/29 04:43:17;;;;;;;5.25;3.25;;;;;;;6.74;100.00;97230.06;4981468;28;20096;-64
2023/12/29 04:45:44;;;;;;;5.85;3.35;;;;;;;6.78;100.00;97224.22;4977388;28;20042;-62
2023/12/29 04:48:10;;;;;;;4.60;2.72;;;;;;;6.79;100.00;97223.19;4984268;28;20046;-63
2023/12/29 04:50:37;;;;;;;5.93;3.17;;;;;;;6.79;100.00;97231.25;4976332;28;20565;-63
2023/12/29 04:53:03;;;;;;;6.53;3.17;;;;;;;6.81;100.00;97232.66;4983873;28;20429;-64
2023/12/29 04:55:30;;;;;;;5.45;3.00;;;;;;;6.79;100.00;97229.38;4980804;28;20121;-63
2023/12/29 04:57:56;;;;;;;5.18;3.33;;;;;;;6.82;100.00;97234.28;4981286;28;20050;-64
2023/12/29 05:00:23;;;;;;;5.70;2.95;;;;;;;6.78;100.00;97230.41;4984796;28;20050;-64
2023/12/29 05:02:50;;;;;;;6.13;3.47;;;;;;;6.78;100.00;97233.09;4974092;28;20101;-63
2023/12/29 05:05:16;;;;;;;5.63;3.40;;;;;;;6.77;100.00;97239.56;4984258;28;20384;-65
2023/12/29 05:07:43;;;;;;;5.25;3.22;;;;;;;6.76;100.00;97236.06;4982829;28;20038;-64
2023/12/29 05:10:09;;;;;;;6.63;3.10;;;;;;;6.75;100.00;97233.59;4979669;28;20038;-62
2023/12/29 05:12:36;;;;;;;5.38;3.20;;;;;;;6.76;100.00;97236.06;4981470;28;20046;-63
2023/12/29 05:15:04;;;;;;;6.18;3.20;;;;;;;6.73;100.00;97239.19;4982833;28;20031;-65
2023/12/29 05:17:30;;;;;;;6.53;2.97;;;;;;;6.71;100.00;97243.16;4984944;28;20039;-63
2023/12/29 05:19:57;;;;;;;5.97;2.95;;;;;;;6.70;100.00;97254.97;4981718;28;20486;-64
2023/12/29 05:22:23;;;;;;;5.03;3.15;;;;;;;6.71;100.00;97243.16;4983472;28;20125;-62
2023/12/29 05:24:50;;;;;;;7.15;3.25;;;;;;;6.72;100.00;97250.19;4976412;28;20050;-64
2023/12/29 05:27:16;;;;;;;6.20;3.40;;;;;;;6.70;100.00;97253.09;4979344;28;20069;-64
2023/12/29 05:29:43;;;;;;;7.40;3.42;;;;;;;6.72;100.00;97253.72;4984404;28;20410;-63
2023/12/29 05:32:09;;;;;;;6.00;3.25;;;;;;;6.73;100.00;97259.91;4981706;28;20053;-64
2023/12/29 05:34:36;;;;;;;6.65;3.58;;;;;;;6.73;100.00;97254.50;4980445;28;20068;-63
2023/12/29 05:37:03;;;;;;;6.15;3.40;;;;;;;6.76;100.00;97254.06;4984386;28;20092;-64
2023/12/29 05:39:29;;;;;;;5.47;3.38;;;;;;;6.78;100.00;97251.94;4982144;28;20050;-63
2023/12/29 05:41:56;;;;;;;7.97;3.13;;;;;;;6.77;100.00;97247.63;4977168;28;20069;-63
2023/12/29 05:44:23;;;;;;;5.50;3.42;;;;;;;6.76;100.00;97256.75;4979458;28;20053;-64
2023/12/29 05:46:49;;;;;;;5.53;3.33;;;;;;;6.77;100.00;97255.69;4982318;28;20194;-65
2023/12/29 05:49:16;;;;;;;7.75;3.70;;;;;;;6.73;100.00;97276.03;4984553;28;20046;-63
2023/12/29 05:51:44;;;;;;;5.97;3.80;;;;;;;6.74;100.00;97283.06;4980599;28;20162;-64
2023/12/29 05:54:10;;;;;;;5.63;3.10;;;;;;;6.78;100.00;97272.66;4984508;28;20177;-63
2023/12/29 05:56:37;;;;;;;5.15;2.90;;;;;;;6.76;100.00;97287.19;4984083;28;20629;-66
2023/12/29 05:59:04;;;;;;;5.75;3.60;;;;;;;6.67;100.00;97293.13;4981410;28;20130;-63
2023/12/29 06:01:30;;;;;;;8.43;3.35;;;;;;;6.63;100.00;97307.00;4982932;28;20046;-63
2023/12/29 06:03:57;;;;;;;7.07;3.55;;;;;;;6.56;100.00;97306.28;4981206;28;20042;-66
2023/12/29 06:06:24;;;;;;;6.18;3.30;;;;;;;6.52;100.00;97307.78;4983123;28;20088;-65
2023/12/29 06:08:51;;;;;;;7.93;4.10;;;;;;;6.51;100.00;97319.59;4983012;28;20042;-66
2023/12/29 06:11:17;;;;;;;7.10;4.07;;;;;;;6.52;100.00;97315.03;4984132;28;20109;-64
2023/12/29 06:13:44;;;;;;;6.93;3.70;;;;;;;6.48;100.00;97317.34;4971954;28;20057;-66
2023/12/29 06:16:17;;;;;;;6.50;3.92;;;;;;;6.46;100.00;97314.91;4971905;28;20252;-65
2023/12/29 06:18:43;;;;;;;6.55;3.42;;;;;;;6.51;100.00;97308.84;4978669;28;20094;-66
2023/12/29 06:21:10;;;;;;;6.60;3.63;;;;;;;6.50;100.00;97305.31;4983591;28;20057;-64
2023/12/29 06:23:37;;;;;;;5.97;3.47;;;;;;;6.49;100.00;97303.69;4980369;28;20038;-65
2023/12/29 06:26:03;;;;;;;6.40;3.58;;;;;;;6.48;100.00;97317.34;4979421;28;20406;-65
2023/12/29 06:28:30;;;;;;;6.57;3.45;;;;;;;6.50;100.00;97301.81;4978783;28;20078;-66
2023/12/29 06:30:56;;;;;;;4.97;2.80;;;;;;;6.57;100.00;97316.00;4980490;28;20042;-65
2023/12/29 06:33:23;;;;;;;6.70;3.58;;;;;;;6.59;100.00;97297.75;4981078;28;20062;-65
2023/12/29 06:35:50;;;;;;;6.03;2.72;;;;;;;6.57;100.00;97297.19;4975206;28;20729;-67
2023/12/29 06:38:16;;;;;;;6.80;3.22;;;;;;;6.56;100.00;97295.50;4978038;28;20134;-65
2023/12/29 06:40:43;;;;;;;5.03;2.95;;;;;;;6.66;100.00;97292.28;4981980;28;20046;-65
2023/12/29 06:43:10;;;;;;;5.32;2.83;;;;;;;6.70;100.00;97284.56;4980011;28;20050;-65
2023/12/29 06:45:36;;;;;;;6.53;3.50;;;;;;;6.81;100.00;97281.09;4978097;28;20533;-66
2023/12/29 06:48:03;;;;;;;5.25;3.03;;;;;;;6.82;100.00;97269.28;4977876;28;20031;-66
2023/12/29 06:50:31;;;;;;;9.70;3.10;;;;;;;6.84;100.00;97255.59;4973552;28;20031;-65
2023/12/29 06:52:57;;;;;;;5.35;2.95;;;;;;;6.92;100.00;97249.88;4981250;28;20038;-66
2023/12/29 06:55:25;;;;;;;4.68;2.72;;;;;;;6.97;100.00;97235.72;4977250;28;20689;-66
2023/12/29 06:57:52;;;;;;;4.50;2.63;;;;;;;6.97;100.00;97236.53;4979250;28;20038;-65
2023/12/29 07:00:18;;;;;;;3.88;2.53;;;;;;;6.99;100.00;97228.22;4982759;28;20069;-66
2023/12/29 07:02:45;;;;;;;4.05;2.28;;;;;;;7.07;100.00;97216.31;4983037;28;20102;-65
2023/12/29 07:05:11;;;;;;;3.50;2.03;;;;;;;7.07;100.00;97225.19;4976779;28;20708;-65
2023/12/29 07:07:38;;;;;;;4.25;2.47;;;;;;;7.12;100.00;97219.94;4980426;28;20674;-65
2023/12/29 07:10:06;;;;;;;4.60;2.55;;;;;;;7.14;100.00;97212.47;4977345;28;20502;-67
2023/12/29 07:12:32;;;;;;;4.80;2.25;;;;;;;7.18;100.00;97217.38;4984127;28;20039;-68
2023/12/29 07:14:59;;;;;;;4.47;2.40;;;;;;;7.20;100.00;97209.88;4982357;28;20042;-67
2023/12/29 07:17:25;;;;;;;4.55;2.50;;;;;;;7.19;100.00;97217.13;4979926;28;20118;-67
2023/12/29 07:19:52;;;;;;;4.07;2.30;;;;;;;7.25;100.00;97209.97;4977641;28;20039;-67
2023/12/29 07:22:19;;;;;;;4.25;2.65;;;;;;;7.23;100.00;97207.53;4976793;28;20053;-68
2023/12/29 07:24:46;;;;;;;5.10;2.20;;;;;;;7.23;100.00;97212.09;4974121;28;20057;-69
2023/12/29 07:27:12;;;;;;;4.03;1.85;;;;;;;7.28;100.00;97218.44;4977059;28;20537;-68
2023/12/29 07:29:39;;;;;;;4.13;2.08;;;;;;;7.30;100.00;97220.91;4972758;28;20521;-68
2023/12/29 07:32:06;;;;;;;3.22;1.80;;;;;;;7.39;100.00;97221.34;4978608;28;20050;-67
2023/12/29 07:34:32;;;;;;;2.88;1.70;;;;;;;7.40;100.00;97209.50;4978938;28;20354;-67
2023/12/29 07:36:59;;;;;;;3.15;1.67;;;;;;;7.37;100.00;97213.50;4975787;28;20117;-67
2023/12/29 07:39:26;;;;;;;3.30;1.67;;;;;;;7.39;100.00;97205.19;4981584;28;20053;-67
2023/12/29 07:41:53;;;;;;;2.67;1.40;;;;;;;7.40;100.00;97202.25;4978780;28;20047;-68
2023/12/29 07:44:21;;;;;;;2.85;1.60;;;;;;;7.42;100.00;97197.44;4979972;28;20062;-68
2023/12/29 07:46:48;;;;;;;2.95;1.50;;;;;;;7.49;100.00;97201.91;4979371;28;20421;-68
2023/12/29 07:49:15;;;;;;;3.28;1.95;;;;;;;7.45;100.00;97198.88;4980204;28;20054;-69
2023/12/29 07:51:43;;;;;;;2.53;1.48;;;;;;;7.46;100.00;97203.19;4978443;28;20046;-68
2023/12/29 07:54:10;;;;;;;2.58;1.33;;;;;;;7.52;100.00;97212.22;4979511;28;20057;-67
2023/12/29 07:56:37;;;;;;;2.55;1.38;;;;;;;7.51;100.00;97207.84;4975452;28;20050;-66
2023/12/29 07:59:04;;;;;;;2.85;1.60;;;;;;;7.54;100.00;97210.91;4983185;28;20038;-68
2023/12/29 08:01:31;;;;;;;3.10;1.55;;;;;;;7.63;100.00;97216.75;4977907;28;20441;-66
2023/12/29 08:03:57;;;;;;;2.72;1.38;;;;;;;7.72;100.00;97213.69;4978574;28;20126;-67
2023/12/29 08:06:24;;;;;;;2.55;1.45;;;;;;;7.88;100.00;97204.88;4976737;28;20149;-68
2023/12/29 08:08:51;;;;;;;2.53;1.13;;;;;;;7.90;100.00;97212.72;4977609;28;20046;-69
2023/12/29 08:11:18;;;;;;;2.42;1.25;;;;;;;7.87;100.00;97214.03;4980761;28;20042;-67
2023/12/29 08:13:47;;;;;;;2.20;1.23;;;;;;;7.93;100.00;97206.84;4983851;28;20245;-66
2023/12/29 08:16:14;;;;;;;3.85;1.60;;;;;;;7.90;100.00;97210.84;4983678;28;20050;-67
2023/12/29 08:18:41;;;;;;;4.18;1.58;;;;;;;7.86;100.00;97209.69;4977956;28;20038;-65
2023/12/29 08:21:07;;;;;;;3.80;1.52;;;;;;;7.88;100.00;97212.13;4984589;28;20050;-67
2023/12/29 08:23:34;;;;;;;2.50;1.30;;;;;;;7.91;100.00;97215.19;4982834;28;20112;-52
2023/12/29 08:26:02;;;;;;;3.05;1.27;;;;;;;8.03;100.00;97217.84;4981871;28;20042;-51
2023/12/29 08:28:29;;;;;;;4.32;1.40;;;;;;;8.01;100.00;97213.75;4983212;28;20433;-52
2023/12/29 08:30:56;;;;;;;2.67;1.50;;;;;;;8.08;100.00;97222.53;4976014;28;20042;-55
2023/12/29 08:33:22;;;;;;;2.60;1.48;;;;;;;8.12;100.00;97220.16;4980665;28;20042;-51
2023/12/29 08:35:49;;;;;;;2.67;1.38;;;;;;;8.19;100.00;97223.53;4976487;28;20042;-63
2023/12/29 08:38:16;;;;;;;2.85;1.40;;;;;;;8.26;100.00;97221.50;4982518;28;20046;-62
2023/12/29 08:40:42;;;;;;;3.03;1.55;;;;;;;8.27;100.00;97223.16;4978303;28;20043;-63
2023/12/29 08:43:09;;;;;;;2.45;1.38;;;;;;;8.31;100.00;97221.63;4979305;28;20093;-64
2023/12/29 08:45:36;;;;;;;2.08;1.20;;;;;;;8.30;100.00;97224.56;4977828;28;20718;-64
2023/12/29 08:48:03;;;;;;;2.58;1.52;;;;;;;8.28;100.00;97226.66;4982769;28;20034;-63
2023/12/29 08:50:30;;;;;;;2.63;1.33;;;;;;;8.31;100.00;97226.19;4984896;28;20042;-63
2023/12/29 08:52:57;;;;;;;3.10;1.63;;;;;;;8.34;100.00;97231.09;4983711;28;20042;-63
2023/12/29 08:55:23;;;;;;;1.88;1.13;;;;;;;8.27;100.00;97239.34;4982332;28;20046;-64
2023/12/29 08:57:50;;;;;;;3.55;1.70;;;;;;;8.13;100.00;97241.50;4976934;28;20034;-63
2023/12/29 09:00:16;;;;;;;2.97;1.40;;;;;;;8.02;100.00;97237.78;4980324;28;20046;-61
2023/12/29 09:02:44;;;;;;;3.70;1.90;;;;;;;8.09;100.00;97226.84;4982853;28;20038;-64
2023/12/29 09:05:11;;;;;;;3.38;1.90;;;;;;;8.00;100.00;97231.00;4980363;28;20058;-62
2023/12/29 09:07:38;;;;;;;3.50;1.77;;;;;;;8.01;100.00;97238.00;4980610;28;20105;-63
2023/12/29 09:10:07;;;;;;;5.20;1.90;;;;;;;8.02;100.00;97232.38;4978456;28;20145;-62
2023/12/29 09:12:34;;;;;;;3.55;1.83;;;;;;;7.99;100.00;97230.16;4983558;28;20050;-63
2023/12/29 09:15:02;;;;;;;4.63;1.90;;;;;;;8.03;100.00;97235.88;4980346;28;20043;-63
2023/12/29 09:17:29;;;;;;;3.67;1.70;;;;;;;8.10;100.00;97241.97;4984802;28;20512;-61
2023/12/29 09:19:56;;;;;;;4.38;1.60;;;;;;;8.25;100.00;97244.16;4979982;28;20497;-63
2023/12/29 09:22:35;;;;;;;3.05;1.52;;;;;;;8.28;100.00;97238.28;4982041;28;20115;-62
2023/12/29 09:25:02;;;;;;;5.47;2.00;;;;;;;8.31;100.00;97239.69;4980860;28;20222;-62
2023/12/29 09:27:29;;;;;;;4.28;1.80;;;;;;;8.45;100.00;97245.59;4979374;28;20050;-61
2023/12/29 09:29:55;;;;;;;2.55;1.38;;;;;;;8.59;100.00;97246.16;4984994;28;20046;-63
2023/12/29 09:32:22;;;;;;;3.42;1.73;;;;;;;8.60;100.00;97239.72;4980188;28;20131;-63
2023/12/29 09:34:48;;;;;;;5.30;1.65;;;;;;;8.58;100.00;97255.31;4982107;28;20088;-63
2023/12/29 09:37:15;;;;;;;2.38;1.35;;;;;;;8.55;100.00;97266.59;4982594;28;20057;-62
2023/12/29 09:39:42;;;;;;;4.22;1.85;;;;;;;8.54;100.00;97264.94;4985244;28;20054;-63
2023/12/29 09:42:19;;;;;;;3.70;1.70;;;;;;;8.52;100.00;97272.44;4980411;28;20131;-63
2023/12/29 09:44:50;;;;;;;2.65;1.42;;;;;;;8.46;100.00;97271.53;4979150;28;20049;-63
2023/12/29 09:47:22;;;;;;;4.68;1.70;;;;;;;8.56;100.00;97276.34;4976805;28;20042;-64
2023/12/29 09:49:49;;;;;;;3.45;1.70;;;;;;;8.41;100.00;97282.22;4972894;28;20054;-61
2023/12/29 09:52:16;;;;;;;3.45;1.80;;;;;;;8.30;100.00;97271.22;4971461;28;20489;-61
2023/12/29 09:54:44;;;;;;;4.20;2.00;;;;;;;8.31;100.00;97272.03;4986690;28;20695;-63
2023/12/29 09:57:11;;;;;;;4.32;2.00;;;;;;;8.38;100.00;97280.81;4978046;28;20042;-63
2023/12/29 09:59:40;;;;;;;4.50;1.83;;;;;;;8.42;100.00;97283.84;4977350;28;20050;-61
2023/12/29 10:02:14;;;;;;;3.80;1.92;;;;;;;8.39;100.00;97274.38;4974318;28;20617;-64
2023/12/29 10:04:40;;;;;;;3.97;1.65;;;;;;;8.44;100.00;97276.34;4980552;28;20049;-60
2023/12/29 10:07:09;;;;;;;4.85;2.05;;;;;;;8.38;100.00;97277.31;4975305;28;20117;-65
2023/12/29 10:09:37;;;;;;;3.30;1.70;;;;;;;8.41;100.00;97276.81;4976934;28;20045;-63
2023/12/29 10:12:08;;;;;;;4.03;2.15;;;;;;;8.39;100.00;97260.03;4978818;28;20466;-66
2023/12/29 10:14:53;;;;;;;3.20;1.60;;;;;;;8.35;100.00;97259.72;4976178;28;20057;-64
2023/12/29 10:17:39;;;;;;;6.93;3.22;;;;;;;8.36;100.00;97260.56;4979150;28;20057;-61
2023/12/29 10:20:37;;;;;;;3.88;2.45;;;;;;;8.35;100.00;97257.03;4978607;28;20807;-63
2023/12/29 10:23:13;;;;;;;3.45;2.13;;;;;;;8.32;100.00;97262.88;4973686;28;20038;-64
2023/12/29 10:25:40;;;;;;;5.38;3.05;;;;;;;8.32;100.00;97250.22;4978831;28;20856;-65
2023/12/29 10:28:09;;;;;;;4.95;2.50;;;;;;;8.36;100.00;97249.75;4984014;28;20066;-62
2023/12/29 10:30:37;;;;;;;4.47;2.38;;;;;;;8.33;100.00;97242.94;4979525;28;20038;-67
2023/12/29 10:33:04;;;;;;;3.63;1.70;;;;;;;8.35;100.00;97242.69;4978805;28;20042;-67
2023/12/29 10:35:34;;;;;;;11.07;7.93;;;;;;;8.39;100.00;97241.16;4974508;28;20120;-65
2023/12/29 10:38:11;;;;;;;8.52;5.20;;;;;;;8.43;100.00;97243.16;4975368;28;20050;-64
2023/12/29 10:40:39;;;;;;;4.80;2.90;;;;;;;8.51;100.00;97241.13;4985534;28;20043;-66
2023/12/29 10:43:08;;;;;;;4.95;2.58;;;;;;;8.58;100.00;97239.13;4980163;28;20042;-66
2023/12/29 10:45:37;;;;;;;4.50;2.75;;;;;;;8.62;100.00;97237.56;4980573;28;20054;-68
2023/12/29 10:48:05;;;;;;;8.43;4.10;;;;;;;8.67;100.00;97236.84;4982402;28;20066;-67
2023/12/29 10:50:44;;;;;;;9.60;5.57;;;;;;;8.74;100.00;97232.13;4979243;28;20050;-68
2023/12/29 10:53:17;;;;;;;5.32;2.58;;;;;;;8.79;100.00;97228.69;4974763;28;20051;-66
2023/12/29 10:55:44;;;;;;;2.33;1.10;;;;;;;8.88;100.00;97234.50;4976373;28;20050;-67
2023/12/29 10:58:10;;;;;;;4.35;2.50;;;;;;;9.08;100.00;97232.16;4981162;28;20051;-66
2023/12/29 11:00:37;;;;;;;3.30;1.80;;;;;;;9.14;100.00;97219.53;4978852;28;20046;-65
2023/12/29 11:03:04;;;;;;;2.25;1.27;;;;;;;9.20;100.00;97212.31;4977940;28;20040;-66
2023/12/29 11:05:31;;;;;;;2.17;1.10;;;;;;;9.17;100.00;97213.63;4978864;28;20056;-66
2023/12/29 11:07:59;;;;;;;3.70;1.70;;;;;;;9.17;100.00;97208.22;4973872;28;20577;-64
2023/12/29 11:10:25;;;;;;;2.60;1.02;;;;;;;9.21;100.00;97211.25;4976965;28;20057;-64
2023/12/29 11:12:53;;;;;;;1.63;0.70;;;;;;;9.40;100.00;97198.28;4981351;28;20049;-67
2023/12/29 11:15:20;;;;;;;1.58;0.98;;;;;;;9.51;100.00;97191.13;4979471;28;20127;-64
2023/12/29 11:17:49;;;;;;;2.45;1.30;;;;;;;9.53;100.00;97193.59;4973004;28;20038;-64
2023/12/29 11:20:16;;;;;;;2.03;0.90;;;;;;;9.47;100.00;97195.44;4977166;28;20050;-64
2023/12/29 11:22:46;;;;;;;1.48;0.93;;;;;;;9.44;100.00;97185.09;4973403;28;20466;-64
2023/12/29 11:25:15;;;;;;;3.38;1.20;;;;;;;9.53;100.00;97190.88;4979481;28;20058;-64
2023/12/29 11:27:42;;;;;;;1.40;0.75;;;;;;;9.59;100.00;97198.00;4978409;28;20069;-64
2023/12/29 11:30:13;;;;;;;2.72;1.40;;;;;;;9.58;100.00;97183.66;4984449;28;20049;-63
2023/12/29 11:33:02;;;;;;;2.55;1.40;;;;;;;9.65;100.00;97186.19;4977630;28;20042;-64
2023/12/29 11:35:38;;;;;;;1.77;1.02;;;;;;;9.68;100.00;97183.00;4973046;28;20043;-63